Time;durP1;ratioP1;P1;durP2;ratioP2;P2;SDS_P1;SDS_P2;PMS_P1;PMS_P2;Temp;Humidity;BMP_temperature;BMP_pressure;BME280_temperature;BME280_humidity;BME280_pressure;Samples;Min_cycle;Max_cycle;Signal;HPM_P1;HPM_P2
2023/04/10 00:00:44;;;;;;;;;;;;;;;4.63;70.51;97048.56;5035300;28;19949;-79
2023/04/10 00:03:10;;;;;;;;;;;;;;;4.64;70.83;97049.38;5035226;28;19949;-79
2023/04/10 00:05:36;;;;;;;;;;;;;;;4.63;71.86;97042.56;5035357;28;20431;-79
2023/04/10 00:08:02;;;;;;;;;;;;;;;4.61;72.91;97047.09;5035427;28;19966;-79
2023/04/10 00:10:30;;;;;;;;;;;;;;;4.60;71.43;97046.31;5035080;28;19944;-79
2023/04/10 00:12:56;;;;;;;;;;;;;;;4.59;72.30;97039.47;5035024;28;19973;-79
2023/04/10 00:15:22;;;;;;;;;;;;;;;4.57;71.49;97045.81;5035036;28;19969;-73
2023/04/10 00:17:53;;;;;;;;;;;;;;;4.56;71.37;97033.81;5034971;28;20415;-79
2023/04/10 00:20:20;;;;;;;;;;;;;;;4.56;71.81;97033.81;5035499;28;19936;-69
2023/04/10 00:22:46;;;;;;;;;;;;;;;4.54;71.59;97031.38;5035102;28;19943;-68
2023/04/10 00:25:12;;;;;;;;;;;;;;;4.55;72.16;97038.19;5035494;28;19961;-69
2023/04/10 00:27:38;;;;;;;;;;;;;;;4.56;72.05;97029.44;5034726;28;19954;-69
2023/04/10 00:30:04;;;;;;;;;;;;;;;4.54;71.94;97028.78;5035529;28;19944;-69
2023/04/10 00:32:30;;;;;;;;;;;;;;;4.54;71.91;97026.19;5034670;28;19943;-69
2023/04/10 00:34:55;;;;;;;;;;;;;;;4.52;71.46;97016.94;5034635;28;19944;-71
2023/04/10 00:37:21;;;;;;;;;;;;;;;4.49;71.63;97015.47;5035379;28;20407;-78
2023/04/10 00:39:47;;;;;;;;;;;;;;;4.47;71.38;97013.06;5034509;28;20419;-77
2023/04/10 00:42:13;;;;;;;;;;;;;;;4.43;71.33;97014.34;5034557;28;19932;-78
2023/04/10 00:44:40;;;;;;;;;;;;;;;4.40;71.49;97006.06;5034380;28;19969;-77
2023/04/10 00:47:06;;;;;;;;;;;;;;;4.37;71.37;97009.81;5034571;28;19951;-78
2023/04/10 00:49:32;;;;;;;;;;;;;;;4.33;71.57;97007.72;5034384;28;20392;-78
2023/04/10 00:51:58;;;;;;;;;;;;;;;4.27;71.81;96999.59;5034296;28;19944;-79
2023/04/10 00:54:25;;;;;;;;;;;;;;;4.23;72.78;97007.88;5034604;28;20343;-78
2023/04/10 00:56:51;;;;;;;;;;;;;;;4.20;71.90;97000.41;5034943;28;19968;-78
2023/04/10 00:59:17;;;;;;;;;;;;;;;4.17;72.36;97006.75;5033720;28;19945;-79
2023/04/10 01:01:43;;;;;;;;;;;;;;;4.13;72.12;97021.00;5034932;28;19955;-78
2023/04/10 01:04:09;;;;;;;;;;;;;;;4.12;71.80;97010.81;5017291;28;20402;-79
2023/04/10 01:06:41;;;;;;;;;;;;;;;4.09;72.12;97021.50;5034569;28;19938;-78
2023/04/10 01:09:14;;;;;;;;;;;;;;;4.05;72.76;97016.66;5033947;28;19947;-79
2023/04/10 01:11:47;;;;;;;;;;;;;;;4.03;72.88;97023.78;5034409;28;19944;-79
2023/04/10 01:14:26;;;;;;;;;;;;;;;4.00;72.73;97024.09;5033918;28;19974;-79
2023/04/10 01:16:55;;;;;;;;;;;;;;;3.99;72.95;97017.31;5034571;28;19948;-78
2023/04/10 01:19:30;;;;;;;;;;;;;;;3.97;73.33;97019.25;5034447;28;19948;-79
2023/04/10 01:21:57;;;;;;;;;;;;;;;3.96;72.78;97020.22;5016873;28;19947;-78
2023/04/10 01:24:26;;;;;;;;;;;;;;;3.95;72.93;97015.16;5033819;28;19979;-78
2023/04/10 01:27:05;;;;;;;;;;;;;;;3.91;72.84;97022.50;5034590;28;19948;-78
2023/04/10 01:29:32;;;;;;;;;;;;;;;3.86;72.88;97024.75;5034988;28;19940;-69
2023/04/10 01:32:03;;;;;;;;;;;;;;;3.83;73.04;97017.28;5034564;28;19946;-79
2023/04/10 01:34:38;;;;;;;;;;;;;;;3.78;73.45;97022.13;5033701;28;19941;-78
2023/04/10 01:37:07;;;;;;;;;;;;;;;3.76;73.21;97017.13;5033984;28;19972;-79
2023/04/10 01:39:35;;;;;;;;;;;;;;;3.72;73.49;97015.81;5016149;28;19948;-78
2023/04/10 01:42:01;;;;;;;;;;;;;;;3.70;72.92;97004.00;5034187;28;19940;-79
2023/04/10 01:44:28;;;;;;;;;;;;;;;3.67;73.53;97005.09;5033546;28;20439;-78
2023/04/10 01:46:55;;;;;;;;;;;;;;;3.63;73.32;97007.22;5033645;28;19948;-78
2023/04/10 01:49:23;;;;;;;;;;;;;;;3.61;73.73;97003.97;5033662;28;20325;-71
2023/04/10 01:51:50;;;;;;;;;;;;;;;3.59;73.32;97003.31;5034127;28;19951;-73
2023/04/10 01:54:16;;;;;;;;;;;;;;;3.58;73.50;97008.66;5033714;28;19939;-73
2023/04/10 01:56:42;;;;;;;;;;;;;;;3.54;74.01;97005.56;5034290;28;19948;-73
2023/04/10 01:59:08;;;;;;;;;;;;;;;3.51;74.36;97008.50;5034001;28;19949;-73
2023/04/10 02:01:34;;;;;;;;;;;;;;;3.48;74.09;97008.81;5033920;28;19964;-73
2023/04/10 02:04:00;;;;;;;;;;;;;;;3.46;74.71;97010.75;5033314;28;20330;-74
2023/04/10 02:06:45;;;;;;;;;;;;;;;3.42;74.35;97007.69;5033984;28;20436;-72
2023/04/10 02:09:17;;;;;;;;;;;;;;;3.41;74.19;97013.81;5033379;28;19944;-69
2023/04/10 02:11:48;;;;;;;;;;;;;;;3.40;74.68;97009.63;5035581;28;19939;-69
2023/04/10 02:14:16;;;;;;;;;;;;;;;3.39;74.80;97010.56;5037341;28;20073;-69
2023/04/10 02:16:42;;;;;;;;;;;;;;;3.37;74.69;97003.94;5037211;28;19941;-69
2023/04/10 02:19:10;;;;;;;;;;;;;;;3.36;74.64;97002.28;5037111;28;20347;-69
2023/04/10 02:21:36;;;;;;;;;;;;;;;3.33;75.08;97003.41;5037550;28;19943;-69
2023/04/10 02:24:02;;;;;;;;;;;;;;;3.30;75.17;97006.34;5037031;28;19937;-69
2023/04/10 02:26:28;;;;;;;;;;;;;;;3.28;74.69;96997.91;5037070;28;20316;-70
2023/04/10 02:28:54;;;;;;;;;;;;;;;3.27;74.79;97004.06;5037030;28;19940;-78
2023/04/10 02:31:20;;;;;;;;;;;;;;;3.26;74.92;97010.22;5036977;28;19939;-78
2023/04/10 02:33:46;;;;;;;;;;;;;;;3.26;75.28;97012.81;5037801;28;20389;-78
2023/04/10 02:36:13;;;;;;;;;;;;;;;3.24;75.48;97012.16;5036997;28;19951;-78
2023/04/10 02:38:38;;;;;;;;;;;;;;;3.22;75.65;97021.88;5037677;28;19949;-78
2023/04/10 02:41:04;;;;;;;;;;;;;;;3.20;75.86;97016.03;5036808;28;20330;-78
2023/04/10 02:43:30;;;;;;;;;;;;;;;3.19;76.31;97015.22;5036739;28;19936;-70
2023/04/10 02:45:56;;;;;;;;;;;;;;;3.19;76.08;97017.81;5019386;28;20019;-69
2023/04/10 02:48:22;;;;;;;;;;;;;;;3.19;76.52;97017.81;5036813;28;19956;-69
2023/04/10 02:50:48;;;;;;;;;;;;;;;3.19;75.73;97023.00;5019051;28;20364;-68
2023/04/10 02:53:15;;;;;;;;;;;;;;;3.20;75.70;97018.63;5037089;28;19948;-69
2023/04/10 02:55:41;;;;;;;;;;;;;;;3.20;76.04;97023.81;5037026;28;20417;-69
2023/04/10 02:58:07;;;;;;;;;;;;;;;3.20;76.45;97023.81;5019644;28;19952;-69
2023/04/10 03:00:33;;;;;;;;;;;;;;;3.19;76.10;97011.81;5036989;28;20299;-68
2023/04/10 03:02:59;;;;;;;;;;;;;;;3.18;75.93;97012.78;5036450;28;19945;-71
2023/04/10 03:05:25;;;;;;;;;;;;;;;3.17;75.47;97003.38;5037119;28;20060;-69
2023/04/10 03:07:53;;;;;;;;;;;;;;;3.13;75.31;96989.09;5036270;28;19943;-69
2023/04/10 03:10:19;;;;;;;;;;;;;;;3.11;75.94;97001.41;5036913;28;19951;-68
2023/04/10 03:12:44;;;;;;;;;;;;;;;3.08;76.02;96992.16;5036443;28;19943;-69
2023/04/10 03:15:11;;;;;;;;;;;;;;;3.09;75.95;96987.78;5036946;28;19971;-69
2023/04/10 03:17:37;;;;;;;;;;;;;;;3.09;76.13;96993.81;5036246;28;19945;-68
2023/04/10 03:20:03;;;;;;;;;;;;;;;3.10;75.83;97000.59;5036010;28;20312;-73
2023/04/10 03:22:31;;;;;;;;;;;;;;;3.10;75.77;96986.84;5035333;28;19938;-70
2023/04/10 03:24:56;;;;;;;;;;;;;;;3.08;75.50;96983.59;5018253;28;19971;-69
2023/04/10 03:27:22;;;;;;;;;;;;;;;3.07;76.23;96987.13;5035876;28;19944;-69
2023/04/10 03:29:48;;;;;;;;;;;;;;;3.03;76.04;96986.66;5035839;28;19951;-69
2023/04/10 03:32:14;;;;;;;;;;;;;;;2.98;75.84;96981.94;5036582;28;19943;-69
2023/04/10 03:34:40;;;;;;;;;;;;;;;2.97;75.92;96976.91;5036303;28;19951;-68
2023/04/10 03:37:05;;;;;;;;;;;;;;;2.92;76.12;96979.16;5035596;28;19973;-70
2023/04/10 03:39:32;;;;;;;;;;;;;;;2.89;76.35;96980.28;5035778;28;20305;-77
2023/04/10 03:41:58;;;;;;;;;;;;;;;2.86;76.20;96980.59;5036788;28;19943;-79
2023/04/10 03:44:24;;;;;;;;;;;;;;;2.83;76.76;96993.84;5035790;28;19949;-79
2023/04/10 03:46:49;;;;;;;;;;;;;;;2.82;77.00;96989.66;5035780;28;20303;-79
2023/04/10 03:49:15;;;;;;;;;;;;;;;2.78;76.25;96989.16;5017840;28;19953;-79
2023/04/10 03:51:41;;;;;;;;;;;;;;;2.77;75.88;96982.34;5035505;28;19946;-79
2023/04/10 03:54:07;;;;;;;;;;;;;;;2.74;76.67;96982.66;5035595;28;19941;-79
2023/04/10 03:56:33;;;;;;;;;;;;;;;2.72;76.90;96987.19;5035634;28;19942;-75
2023/04/10 03:58:58;;;;;;;;;;;;;;;2.69;77.07;96981.47;5035863;28;20443;-73
2023/04/10 04:01:25;;;;;;;;;;;;;;;2.67;76.48;96973.88;5035309;28;20393;-79
2023/04/10 04:03:50;;;;;;;;;;;;;;;2.64;76.61;96976.78;5035255;28;19968;-79
2023/04/10 04:06:16;;;;;;;;;;;;;;;2.61;76.94;96970.13;5035092;28;20451;-78
2023/04/10 04:08:42;;;;;;;;;;;;;;;2.57;77.10;96955.88;5035150;28;19938;-79
2023/04/10 04:11:08;;;;;;;;;;;;;;;2.56;77.35;96964.63;5035051;28;19933;-79
2023/04/10 04:13:34;;;;;;;;;;;;;;;2.55;77.39;96957.00;5034873;28;20418;-79
2023/04/10 04:15:59;;;;;;;;;;;;;;;2.54;77.80;96960.53;5035054;28;19950;-71
2023/04/10 04:18:25;;;;;;;;;;;;;;;2.56;78.02;96958.59;5017108;28;19949;-75
2023/04/10 04:20:51;;;;;;;;;;;;;;;2.54;77.84;96961.38;5034863;28;19938;-75
2023/04/10 04:23:17;;;;;;;;;;;;;;;2.55;78.08;96959.59;5034740;28;20357;-75
2023/04/10 04:25:43;;;;;;;;;;;;;;;2.55;77.99;96967.34;5034641;28;19967;-75
2023/04/10 04:28:10;;;;;;;;;;;;;;;2.52;77.89;96958.13;5035531;28;19948;-76
2023/04/10 04:30:36;;;;;;;;;;;;;;;2.52;77.73;96959.88;5035210;28;19947;-75
2023/04/10 04:33:02;;;;;;;;;;;;;;;2.51;77.58;96964.25;5034665;28;19934;-71
2023/04/10 04:35:28;;;;;;;;;;;;;;;2.50;77.92;96962.66;5033878;28;20348;-74
2023/04/10 04:37:54;;;;;;;;;;;;;;;2.50;77.86;96960.06;5034577;28;19956;-72
2023/04/10 04:40:19;;;;;;;;;;;;;;;2.49;77.74;96961.00;5035092;28;19938;-73
2023/04/10 04:42:45;;;;;;;;;;;;;;;2.46;77.75;96963.91;5034814;28;20421;-72
2023/04/10 04:45:11;;;;;;;;;;;;;;;2.44;78.05;96958.09;5017442;28;19965;-73
2023/04/10 04:47:37;;;;;;;;;;;;;;;2.42;77.76;96953.06;5034458;28;19951;-72
2023/04/10 04:50:03;;;;;;;;;;;;;;;2.41;77.75;96953.19;5034404;28;20302;-73
2023/04/10 04:52:29;;;;;;;;;;;;;;;2.39;78.22;96952.53;5034477;28;19950;-78
2023/04/10 04:54:55;;;;;;;;;;;;;;;2.40;78.05;96960.16;5034588;28;19952;-74
2023/04/10 04:57:21;;;;;;;;;;;;;;;2.41;78.30;96969.53;5034502;28;20427;-74
2023/04/10 04:59:46;;;;;;;;;;;;;;;2.43;78.36;96969.38;5034205;28;19944;-74
2023/04/10 05:02:12;;;;;;;;;;;;;;;2.46;78.17;96982.03;5034429;28;20304;-75
2023/04/10 05:04:38;;;;;;;;;;;;;;;2.48;78.12;96979.28;5034116;28;20035;-74
2023/04/10 05:07:04;;;;;;;;;;;;;;;2.51;78.66;96977.19;5034376;28;19942;-74
2023/04/10 05:09:30;;;;;;;;;;;;;;;2.53;78.44;96980.44;5034767;28;20284;-74
2023/04/10 05:11:56;;;;;;;;;;;;;;;2.56;78.70;96984.50;5034098;28;19940;-71
2023/04/10 05:14:22;;;;;;;;;;;;;;;2.58;78.38;96986.00;5034024;28;20001;-73
2023/04/10 05:16:47;;;;;;;;;;;;;;;2.64;78.32;96989.72;5016461;28;19959;-72
2023/04/10 05:19:13;;;;;;;;;;;;;;;2.71;78.28;96982.97;5034449;28;19942;-72
2023/04/10 05:21:39;;;;;;;;;;;;;;;2.82;77.78;96981.88;5033876;28;19976;-72
2023/04/10 05:24:05;;;;;;;;;;;;;;;2.95;77.91;96977.06;5033827;28;19949;-73
2023/04/10 05:26:31;;;;;;;;;;;;;;;3.12;77.63;96980.53;5016900;28;20442;-72
2023/04/10 05:28:57;;;;;;;;;;;;;;;3.31;77.47;96973.44;5016170;28;19943;-71
2023/04/10 05:31:23;;;;;;;;;;;;;;;3.48;76.87;96976.88;5033743;28;19948;-73
2023/04/10 05:33:49;;;;;;;;;;;;;;;3.66;76.37;96967.97;5033897;28;19939;-71
2023/04/10 05:36:17;;;;;;;;;;;;;;;3.83;76.01;96974.00;5033564;28;19957;-71
2023/04/10 05:38:42;;;;;;;;;;;;;;;3.97;75.81;96967.34;5034170;28;19947;-71
2023/04/10 05:41:08;;;;;;;;;;;;;;;4.12;75.33;96970.09;5033832;28;19945;-71
2023/04/10 05:43:34;;;;;;;;;;;;;;;4.26;75.18;96968.59;5033590;28;19953;-71
2023/04/10 05:46:00;;;;;;;;;;;;;;;4.37;75.35;96967.47;5034530;28;20000;-72
2023/04/10 05:48:27;;;;;;;;;;;;;;;4.46;75.15;96967.25;5020875;28;19943;-76
2023/04/10 05:50:53;;;;;;;;;;;;;;;4.61;74.80;96966.56;5037826;28;19945;-80
2023/04/10 05:53:19;;;;;;;;;;;;;;;4.78;74.34;96964.72;5037719;28;19945;-80
2023/04/10 05:55:50;;;;;;;;;;;;;;;5.02;74.52;96964.63;5037881;28;19950;-80
2023/04/10 05:58:15;;;;;;;;;;;;;;;5.28;74.46;96964.31;5038406;28;19955;-80
2023/04/10 06:00:41;;;;;;;;;;;;;;;5.49;73.58;96963.72;5037977;28;19944;-81
2023/04/10 06:03:07;;;;;;;;;;;;;;;5.67;73.19;96962.63;5037446;28;20406;-81
2023/04/10 06:05:33;;;;;;;;;;;;;;;5.80;72.54;96954.25;5037484;28;19948;-73
2023/04/10 06:07:59;;;;;;;;;;;;;;;5.83;72.05;96949.47;5020528;28;19949;-80
2023/04/10 06:10:28;;;;;;;;;;;;;;;5.82;72.00;96945.25;5037834;28;20329;-71
2023/04/10 06:12:53;;;;;;;;;;;;;;;5.79;72.07;96950.81;5020351;28;19980;-71
2023/04/10 06:15:19;;;;;;;;;;;;;;;5.76;72.02;96948.56;5037807;28;19946;-72
2023/04/10 06:17:45;;;;;;;;;;;;;;;5.80;72.57;96957.66;5037430;28;19957;-71
2023/04/10 06:20:11;;;;;;;;;;;;;;;5.91;73.04;96959.03;5037764;28;19948;-72
2023/04/10 06:22:37;;;;;;;;;;;;;;;6.12;73.28;96957.56;5035925;28;19941;-72
2023/04/10 06:25:04;;;;;;;;;;;;;;;6.41;71.69;96941.19;5037314;28;19977;-73
2023/04/10 06:27:30;;;;;;;;;;;;;;;6.76;68.83;96920.56;5019619;28;19944;-71
2023/04/10 06:29:55;;;;;;;;;;;;;;;7.12;67.91;96923.22;5036904;28;20023;-72
2023/04/10 06:32:21;;;;;;;;;;;;;;;7.42;66.96;96918.72;5037079;28;19936;-71
2023/04/10 06:34:47;;;;;;;;;;;;;;;7.66;65.64;96916.72;5036891;28;19947;-71
2023/04/10 06:37:13;;;;;;;;;;;;;;;7.91;65.74;96914.50;5036651;28;19956;-71
2023/04/10 06:39:39;;;;;;;;;;;;;;;8.03;65.12;96912.19;5037570;28;20310;-71
2023/04/10 06:42:05;;;;;;;;;;;;;;;8.25;64.80;96905.09;5037216;28;20023;-81
2023/04/10 06:44:31;;;;;;;;;;;;;;;8.44;64.81;96903.63;5036658;28;19949;-71
2023/04/10 06:46:56;;;;;;;;;;;;;;;8.66;64.49;96906.97;5036614;28;19955;-71
2023/04/10 06:49:23;;;;;;;;;;;;;;;8.87;63.08;96903.44;5019065;28;19952;-72
2023/04/10 06:51:49;;;;;;;;;;;;;;;8.96;61.99;96891.78;5037378;28;19952;-72
2023/04/10 06:54:15;;;;;;;;;;;;;;;9.12;61.84;96888.03;5037071;28;19947;-72
2023/04/10 06:56:41;;;;;;;;;;;;;;;9.32;62.31;96891.50;5036358;28;19953;-72
2023/04/10 06:59:07;;;;;;;;;;;;;;;9.66;60.71;96884.50;5036246;28;20406;-72
2023/04/10 07:01:32;;;;;;;;;;;;;;;10.07;60.59;96885.28;5036992;28;19954;-79
2023/04/10 07:03:58;;;;;;;;;;;;;;;10.46;58.78;96871.31;5036594;28;19949;-73
2023/04/10 07:06:25;;;;;;;;;;;;;;;10.70;56.35;96867.19;5018630;28;19962;-73
2023/04/10 07:08:51;;;;;;;;;;;;;;;10.83;52.82;96868.16;5036315;28;20386;-73
2023/04/10 07:11:17;;;;;;;;;;;;;;;10.86;55.13;96873.00;5036173;28;20031;-73
2023/04/10 07:13:43;;;;;;;;;;;;;;;11.00;55.64;96876.34;5036857;28;20022;-73
2023/04/10 07:16:09;;;;;;;;;;;;;;;11.20;54.47;96877.03;5036235;28;19951;-73
2023/04/10 07:18:37;;;;;;;;;;;;;;;11.39;54.07;96875.31;5036599;28;19952;-72
2023/04/10 07:21:11;;;;;;;;;;;;;;;11.52;54.77;96885.72;5036054;28;19944;-75
2023/04/10 07:23:36;;;;;;;;;;;;;;;11.60;50.94;96883.88;5035944;28;19945;-72
2023/04/10 07:26:02;;;;;;;;;;;;;;;11.56;52.81;96892.16;5001799;28;20066;-73
2023/04/10 07:28:28;;;;;;;;;;;;;;;11.55;52.46;96892.41;5036146;28;19950;-72
2023/04/10 07:30:54;;;;;;;;;;;;;;;11.53;52.15;96894.44;5035865;28;19940;-73
2023/04/10 07:33:20;;;;;;;;;;;;;;;11.60;51.76;96894.38;5036363;28;19946;-73
2023/04/10 07:35:46;;;;;;;;;;;;;;;11.60;52.18;96897.00;5035696;28;19952;-73
2023/04/10 07:38:12;;;;;;;;;;;;;;;11.69;50.54;96900.97;5036277;28;19940;-80
2023/04/10 07:40:37;;;;;;;;;;;;;;;11.69;51.44;96896.50;5035646;28;20412;-83
2023/04/10 07:43:03;;;;;;;;;;;;;;;11.81;50.38;96895.84;5035667;28;19951;-84
2023/04/10 07:45:29;;;;;;;;;;;;;;;11.93;52.61;96902.84;5035441;28;19961;-83
2023/04/10 07:47:57;;;;;;;;;;;;;;;12.09;51.58;96905.94;5036083;28;19950;-84
2023/04/10 07:50:23;;;;;;;;;;;;;;;12.26;50.20;96906.19;5036292;28;19939;-84
2023/04/10 07:52:48;;;;;;;;;;;;;;;12.30;48.56;96897.63;5036012;28;20023;-84
2023/04/10 07:55:14;;;;;;;;;;;;;;;12.41;45.64;96896.13;5035400;28;19950;-84
2023/04/10 07:57:40;;;;;;;;;;;;;;;12.42;49.82;96902.19;5035374;28;20002;-76
2023/04/10 08:00:06;;;;;;;;;;;;;;;12.37;48.48;96890.50;5035323;28;19941;-73
2023/04/10 08:02:32;;;;;;;;;;;;;;;12.42;48.82;96891.69;5017395;28;19956;-73
2023/04/10 08:04:58;;;;;;;;;;;;;;;12.26;49.55;96899.09;5018113;28;19946;-72
2023/04/10 08:07:24;;;;;;;;;;;;;;;12.07;48.95;96894.84;5017405;28;19961;-73
2023/04/10 08:09:50;;;;;;;;;;;;;;;12.29;50.00;96895.25;5034896;28;20382;-73
2023/04/10 08:12:16;;;;;;;;;;;;;;;12.48;49.50;96899.50;5034974;28;19942;-73
2023/04/10 08:14:43;;;;;;;;;;;;;;;12.53;49.45;96889.09;5035059;28;20334;-74
2023/04/10 08:17:13;;;;;;;;;;;;;;;12.66;46.68;96879.47;5034947;28;19949;-72
2023/04/10 08:19:40;;;;;;;;;;;;;;;12.85;50.75;96888.97;5034887;28;20320;-84
2023/04/10 08:22:06;;;;;;;;;;;;;;;13.03;46.91;96879.44;5034880;28;19943;-84
2023/04/10 08:24:32;;;;;;;;;;;;;;;13.15;46.64;96888.97;5034794;28;19960;-84
2023/04/10 08:26:58;;;;;;;;;;;;;;;13.29;47.51;96880.91;5034879;28;20355;-84
2023/04/10 08:29:24;;;;;;;;;;;;;;;13.40;47.10;96888.06;5034699;28;20411;-85
2023/04/10 08:31:50;;;;;;;;;;;;;;;13.60;45.18;96885.13;5034569;28;19965;-85
2023/04/10 08:34:15;;;;;;;;;;;;;;;13.72;45.11;96887.81;5035411;28;19948;-73
2023/04/10 08:36:41;;;;;;;;;;;;;;;13.74;44.63;96883.91;5017002;28;19998;-75
2023/04/10 08:39:07;;;;;;;;;;;;;;;13.74;46.15;96886.53;5034507;28;20362;-75
2023/04/10 08:41:33;;;;;;;;;;;;;;;13.87;46.28;96884.72;5016756;28;19997;-75
2023/04/10 08:43:59;;;;;;;;;;;;;;;14.05;45.57;96886.44;5034389;28;19946;-75
2023/04/10 08:46:26;;;;;;;;;;;;;;;13.85;43.58;96886.78;5034312;28;20326;-73
2023/04/10 08:49:02;;;;;;;;;;;;;;;13.69;42.99;96890.88;5034888;28;20414;-73
2023/04/10 08:51:30;;;;;;;;;;;;;;;13.58;45.21;96889.81;5034562;28;19999;-82
2023/04/10 08:53:57;;;;;;;;;;;;;;;13.67;44.49;96895.56;5034469;28;20313;-77
2023/04/10 08:56:24;;;;;;;;;;;;;;;13.81;44.91;96897.78;5034185;28;19938;-78
2023/04/10 08:58:50;;;;;;;;;;;;;;;13.88;42.74;96891.59;5034669;28;19943;-78
2023/04/10 09:01:19;;;;;;;;;;;;;;;14.07;45.28;96887.03;5034131;28;19933;-77
2023/04/10 09:03:46;;;;;;;;;;;;;;;14.28;41.83;96886.47;5016977;28;20394;-77
2023/04/10 09:06:12;;;;;;;;;;;;;;;14.48;43.09;96883.44;5034034;28;19960;-77
2023/04/10 09:08:38;;;;;;;;;;;;;;;14.34;40.76;96885.56;5034632;28;19948;-76
2023/04/10 09:11:04;;;;;;;;;;;;;;;14.18;42.56;96886.25;5034051;28;19935;-77
2023/04/10 09:13:41;;;;;;;;;;;;;;;14.32;42.90;96886.78;5034017;28;19967;-73
2023/04/10 09:16:07;;;;;;;;;;;;;;;14.51;42.94;96885.66;5034634;28;19950;-74
2023/04/10 09:18:45;;;;;;;;;;;;;;;14.65;42.99;96875.66;5034867;28;19939;-74
2023/04/10 09:21:13;;;;;;;;;;;;;;;14.78;43.35;96877.22;5033259;28;20307;-74
2023/04/10 09:23:39;;;;;;;;;;;;;;;14.99;44.19;96867.84;5034055;28;20344;-73
2023/04/10 09:26:21;;;;;;;;;;;;;;;15.12;41.13;96858.84;5033734;28;19966;-73
2023/04/10 09:28:56;;;;;;;;;;;;;;;15.05;43.56;96853.72;5034081;28;19946;-71
2023/04/10 09:31:26;;;;;;;;;;;;;;;15.00;41.67;96849.13;5034209;28;19936;-71
2023/04/10 09:34:05;;;;;;;;;;;;;;;15.10;42.01;96845.91;5034178;28;19955;-71
2023/04/10 09:36:31;;;;;;;;;;;;;;;15.15;41.80;96851.25;5034487;28;19958;-71
2023/04/10 09:38:57;;;;;;;;;;;;;;;15.25;41.32;96839.28;5034183;28;19937;-71
2023/04/10 09:41:22;;;;;;;;;;;;;;;15.40;42.17;96848.25;5033782;28;19940;-71
2023/04/10 09:43:48;;;;;;;;;;;;;;;15.32;41.88;96845.22;5016755;28;19947;-71
2023/04/10 09:46:25;;;;;;;;;;;;;;;15.26;41.12;96839.03;5033532;28;20055;-71
2023/04/10 09:48:55;;;;;;;;;;;;;;;15.23;38.62;96836.88;5016444;28;20436;-70
2023/04/10 09:51:31;;;;;;;;;;;;;;;15.13;40.21;96832.19;5034300;28;19934;-71
2023/04/10 09:53:56;;;;;;;;;;;;;;;15.20;41.55;96834.69;5034498;28;19945;-71
2023/04/10 09:56:25;;;;;;;;;;;;;;;15.22;39.33;96822.88;5033976;28;19986;-70
2023/04/10 09:58:52;;;;;;;;;;;;;;;15.17;41.42;96819.31;5033707;28;19941;-71
2023/04/10 10:01:19;;;;;;;;;;;;;;;15.21;40.49;96807.25;5033872;28;19942;-71
2023/04/10 10:03:45;;;;;;;;;;;;;;;15.11;38.81;96813.16;5034035;28;19943;-71
2023/04/10 10:06:11;;;;;;;;;;;;;;;15.17;40.56;96806.91;5033292;28;20040;-71
2023/04/10 10:08:37;;;;;;;;;;;;;;;15.32;39.02;96800.28;5033412;28;19944;-70
2023/04/10 10:11:06;;;;;;;;;;;;;;;15.41;39.35;96804.13;5033237;28;19933;-71
2023/04/10 10:13:36;;;;;;;;;;;;;;;15.57;40.27;96792.75;5033054;28;20352;-70
2023/04/10 10:16:14;;;;;;;;;;;;;;;15.73;36.67;96779.81;5034026;28;19947;-71
2023/04/10 10:18:46;;;;;;;;;;;;;;;15.92;38.92;96785.66;5033312;28;19948;-70
2023/04/10 10:21:13;;;;;;;;;;;;;;;16.05;38.39;96787.13;5033821;28;19938;-72
2023/04/10 10:23:39;;;;;;;;;;;;;;;16.08;37.20;96768.91;5016355;28;19944;-70
2023/04/10 10:26:05;;;;;;;;;;;;;;;16.11;36.63;96767.66;5016130;28;19966;-74
2023/04/10 10:28:32;;;;;;;;;;;;;;;16.11;35.16;96771.09;5033602;28;19949;-74
2023/04/10 10:30:58;;;;;;;;;;;;;;;16.11;37.78;96768.44;5033131;28;20425;-76
2023/04/10 10:33:25;;;;;;;;;;;;;;;16.17;36.22;96766.66;5036164;28;20403;-76
2023/04/10 10:35:51;;;;;;;;;;;;;;;16.24;34.71;96756.69;5036767;28;20307;-74
2023/04/10 10:38:17;;;;;;;;;;;;;;;16.18;35.14;96755.03;5037715;28;19947;-76
2023/04/10 10:40:43;;;;;;;;;;;;;;;16.27;36.12;96747.44;5037297;28;19947;-76
2023/04/10 10:43:15;;;;;;;;;;;;;;;16.31;33.26;96745.91;5037027;28;19939;-72
2023/04/10 10:45:51;;;;;;;;;;;;;;;16.48;35.37;96746.63;5036652;28;19952;-76
2023/04/10 10:48:17;;;;;;;;;;;;;;;16.69;35.11;96750.28;5036691;28;19945;-74
2023/04/10 10:50:49;;;;;;;;;;;;;;;16.84;34.95;96744.41;5036652;28;19940;-74
2023/04/10 10:53:31;;;;;;;;;;;;;;;16.79;34.36;96742.44;5037361;28;19953;-74
2023/04/10 10:55:57;;;;;;;;;;;;;;;16.86;34.99;96738.84;5036616;28;19937;-74
2023/04/10 10:58:41;;;;;;;;;;;;;;;16.96;34.78;96750.31;5036397;28;19940;-74
2023/04/10 11:01:07;;;;;;;;;;;;;;;17.10;33.23;96737.47;5036722;28;19940;-71
2023/04/10 11:03:33;;;;;;;;;;;;;;;17.36;33.61;96735.03;5018583;28;19955;-77
2023/04/10 11:06:01;;;;;;;;;;;;;;;17.38;31.12;96725.75;5036357;28;19943;-77
2023/04/10 11:08:34;;;;;;;;;;;;;;;17.50;34.04;96735.41;5036266;28;19946;-77
2023/04/10 11:11:07;;;;;;;;;;;;;;;17.67;32.22;96728.06;5036244;28;19940;-77
2023/04/10 11:13:33;;;;;;;;;;;;;;;17.91;33.61;96731.19;5035458;28;19981;-77
2023/04/10 11:16:01;;;;;;;;;;;;;;;17.98;32.48;96715.81;5036997;28;20393;-77
2023/04/10 11:18:46;;;;;;;;;;;;;;;17.98;33.66;96726.44;5036097;28;19948;-71
2023/04/10 11:21:18;;;;;;;;;;;;;;;18.12;32.89;96723.28;5036140;28;19942;-71
2023/04/10 11:23:54;;;;;;;;;;;;;;;18.35;29.86;96714.91;5019110;28;19951;-74
2023/04/10 11:26:33;;;;;;;;;;;;;;;18.21;31.09;96709.28;5018927;28;19963;-75
2023/04/10 11:29:00;;;;;;;;;;;;;;;18.36;32.01;96711.19;5035955;28;19946;-74
2023/04/10 11:31:26;;;;;;;;;;;;;;;18.47;32.17;96706.69;5018172;28;20340;-74
2023/04/10 11:33:52;;;;;;;;;;;;;;;18.71;30.43;96700.88;5035987;28;19942;-75
2023/04/10 11:36:18;;;;;;;;;;;;;;;18.99;29.75;96705.75;5035927;28;19958;-75
2023/04/10 11:38:54;;;;;;;;;;;;;;;19.19;30.58;96704.97;5035779;28;19942;-71
2023/04/10 11:41:20;;;;;;;;;;;;;;;19.31;29.07;96706.53;5035790;28;20331;-72
2023/04/10 11:43:50;;;;;;;;;;;;;;;19.31;25.01;96698.56;5035110;28;20389;-72
2023/04/10 11:46:16;;;;;;;;;;;;;;;19.39;28.86;96698.81;5017912;28;20310;-71
2023/04/10 11:48:42;;;;;;;;;;;;;;;19.52;28.09;96702.00;5035595;28;19942;-71
2023/04/10 11:51:09;;;;;;;;;;;;;;;19.56;29.39;96695.84;5035523;28;19936;-71
2023/04/10 11:53:35;;;;;;;;;;;;;;;19.56;27.08;96690.53;5035472;28;19938;-71
2023/04/10 11:56:01;;;;;;;;;;;;;;;19.48;26.61;96675.13;5035565;28;19942;-74
2023/04/10 11:58:29;;;;;;;;;;;;;;;19.42;26.96;96677.00;5035386;28;20309;-71
2023/04/10 12:00:59;;;;;;;;;;;;;;;19.34;26.98;96674.06;5035387;28;19942;-71
2023/04/10 12:03:34;;;;;;;;;;;;;;;19.41;26.02;96672.75;5035290;28;20316;-71
2023/04/10 12:06:00;;;;;;;;;;;;;;;19.40;26.10;96670.34;5035167;28;19951;-71
2023/04/10 12:08:33;;;;;;;;;;;;;;;19.11;24.75;96659.47;5035146;28;19948;-71
2023/04/10 12:11:00;;;;;;;;;;;;;;;18.95;25.87;96656.84;5035188;28;19932;-71
2023/04/10 12:13:26;;;;;;;;;;;;;;;18.99;26.90;96647.25;5035261;28;20082;-77
2023/04/10 12:15:53;;;;;;;;;;;;;;;19.19;27.73;96650.97;5035155;28;19939;-74
2023/04/10 12:18:20;;;;;;;;;;;;;;;19.37;26.85;96647.75;5034860;28;20304;-77
2023/04/10 12:20:46;;;;;;;;;;;;;;;19.32;27.08;96653.09;5035710;28;19935;-78
2023/04/10 12:23:12;;;;;;;;;;;;;;;19.25;27.17;96644.56;5034889;28;19989;-77
2023/04/10 12:25:38;;;;;;;;;;;;;;;19.16;25.19;96654.97;5017794;28;19949;-76
2023/04/10 12:28:04;;;;;;;;;;;;;;;19.08;25.82;96644.88;5035119;28;19957;-77
2023/04/10 12:30:30;;;;;;;;;;;;;;;19.19;26.69;96635.00;5035549;28;19980;-77
2023/04/10 12:32:56;;;;;;;;;;;;;;;19.25;25.56;96642.72;5017208;28;20351;-70
2023/04/10 12:35:37;;;;;;;;;;;;;;;19.11;26.65;96644.34;5035525;28;20030;-72
2023/04/10 12:38:03;;;;;;;;;;;;;;;18.91;23.81;96628.41;5034592;28;19936;-71
2023/04/10 12:40:29;;;;;;;;;;;;;;;18.82;24.83;96636.91;5034307;28;20304;-71
2023/04/10 12:42:56;;;;;;;;;;;;;;;18.72;25.84;96628.91;5034521;28;19979;-71
2023/04/10 12:45:40;;;;;;;;;;;;;;;18.72;25.57;96628.09;5035021;28;19937;-71
2023/04/10 12:48:06;;;;;;;;;;;;;;;18.78;25.48;96613.75;5035166;28;19961;-71
2023/04/10 12:50:32;;;;;;;;;;;;;;;18.86;25.32;96618.59;5034578;28;19939;-84
2023/04/10 12:53:02;;;;;;;;;;;;;;;18.94;24.42;96610.06;5034594;28;20386;-71